Historyczne dane pomiarowe

Dodano dane terminowe – wersja testowa.

Dane z okresu 1951-2019

Wersja bazy: 1.34 [2019-03-16, lista zmian], aktualizacja planowana na 2019-04-15

Dane meteo z obszaru Polski uzyskane na podstawie danych udostępnionych przez Instytut Meteorologii i Gospodarki Wodnej – Państwowy Instytut Badawczy.

 

Wybierz Datę:    

       

TemperaturaWilgotnośćZachmurzenieWiatrCiśnienieWidzialnośćZjawiska
 Data    tng td wb rh cc ccl cl cm ch dir g1 g2 mslp ppp      
1999-07-29 00:00:00 16.1--- 8.2 11.859wxwx4wx--1022.2 999.2 0.0---wx
1999-07-29 01:00:00 15.6--- 8.2 11.662wxwx4wx--1022.3 999.3----wx
1999-07-29 02:00:00 14.4--- 8.1 11.066wxwx4wx--1022.0 998.9----wx
1999-07-29 03:00:00 14.4--- 9.1 11.571wxwx4wx--1022.2 999.1----wx
1999-07-29 04:00:00 13.2--- 8.6 10.773wxwx3wx--1022.4 999.2----wx
1999-07-29 05:00:00 13.5--- 9.3 11.276wxwx3wx--1022.6 999.4----wx
1999-07-29 06:00:00 15.1--- 11.5 13.079wxwx3wx--1022.5 999.5 0.0---wx
1999-07-29 07:00:00 17.6--- 11.4 14.067wxwx2wx--1022.5 999.7----wx
1999-07-29 08:00:00 19.6--- 11.8 15.061wxwx2wx--1022.5 999.8----wx
1999-07-29 09:00:00 21.8--- 11.8 15.853wxwxwxwx2wx--1022.4 999.9----wx
1999-07-29 10:00:00 22.4--- 10.2 15.346wxwxwxwx3wx--1022.0 999.5----wx
1999-07-29 11:00:00 23.6--- 10.1 15.743wxwxwx3wx--1021.7 999.3----wx
1999-07-29 12:00:00 25.0--- 9.1 15.837wxwxwx3wx--1021.3 999.0 0.0---wx
1999-07-29 13:00:00 23.2--- 8.4 14.839wxwxwx4wx--1021.0 998.6----wx
1999-07-29 14:00:00 23.8--- 8.8 15.238wxwxwx1wx--1020.4 998.1----wx
1999-07-29 15:00:00 24.9--- 6.8 14.831wxwxwxwx2wx--1020.2 998.0----wx
1999-07-29 16:00:00 24.0--- 8.2 15.036wxwxwxwx3wx--1019.9 997.6----wx
1999-07-29 17:00:00 23.8--- 7.9 14.836wxwxwxwx3wx--1019.6 997.3----wx
1999-07-29 18:00:00 22.9--- 10.0 15.444wxwxwx2wx--1019.6 997.2 0.0---wx
1999-07-29 19:00:00 21.5--- 8.6 14.244wxwxwxwx1wx--1019.8 997.3----wx
1999-07-29 20:00:00 20.6--- 8.5 13.846wxwxwx2wx--1020.2 997.6----wx
1999-07-29 21:00:00 20.3--- 8.5 13.747wxwxwx1wx--1020.2 997.6----wx
1999-07-29 22:00:00 20.0--- 8.6 13.648wxwx2wx--1020.3 997.7----wx
1999-07-29 23:00:00 19.3--- 8.6 13.350wxwxwx3wx--1020.3 997.6----wx

 

Źródłem pochodzenia danych jest Instytut Meteorologii i Gospodarki Wodnej – Państwowy Instytut Badawczy. Dane Instytutu Meteorologii i Gospodarki Wodnej – Państwowego Instytutu Badawczego zostały przetworzone.

Dane źródłowe można odnaleźć na stronie https://dane.imgw.pl